sensor_id;sensor_type;location;lat;lon;timestamp;P1;durP1;ratioP1;P2;durP2;ratioP2
12224;SDS011;6175;50.956;11.064;2023-04-06T00:00:47;5.93;;;5.30;;
12224;SDS011;6175;50.956;11.064;2023-04-06T00:03:15;5.67;;;5.10;;
12224;SDS011;6175;50.956;11.064;2023-04-06T00:05:43;5.80;;;5.30;;
12224;SDS011;6175;50.956;11.064;2023-04-06T00:08:10;6.53;;;5.83;;
12224;SDS011;6175;50.956;11.064;2023-04-06T00:10:37;5.70;;;5.20;;
12224;SDS011;6175;50.956;11.064;2023-04-06T00:13:05;5.33;;;4.80;;
12224;SDS011;6175;50.956;11.064;2023-04-06T00:15:32;5.40;;;4.90;;
12224;SDS011;6175;50.956;11.064;2023-04-06T00:17:59;6.20;;;5.10;;
12224;SDS011;6175;50.956;11.064;2023-04-06T00:20:26;5.10;;;4.60;;
12224;SDS011;6175;50.956;11.064;2023-04-06T00:22:55;4.90;;;4.50;;
12224;SDS011;6175;50.956;11.064;2023-04-06T00:25:22;4.90;;;4.50;;
12224;SDS011;6175;50.956;11.064;2023-04-06T00:27:49;4.00;;;3.70;;
12224;SDS011;6175;50.956;11.064;2023-04-06T00:30:16;4.30;;;3.83;;
12224;SDS011;6175;50.956;11.064;2023-04-06T00:32:44;4.80;;;4.30;;
12224;SDS011;6175;50.956;11.064;2023-04-06T00:35:11;4.93;;;4.50;;
12224;SDS011;6175;50.956;11.064;2023-04-06T00:37:38;6.10;;;5.33;;
12224;SDS011;6175;50.956;11.064;2023-04-06T00:40:08;5.50;;;5.00;;
12224;SDS011;6175;50.956;11.064;2023-04-06T00:42:35;4.83;;;4.43;;
12224;SDS011;6175;50.956;11.064;2023-04-06T00:45:02;5.33;;;4.83;;
12224;SDS011;6175;50.956;11.064;2023-04-06T00:47:30;6.73;;;5.77;;
12224;SDS011;6175;50.956;11.064;2023-04-06T00:49:57;5.87;;;5.27;;
12224;SDS011;6175;50.956;11.064;2023-04-06T00:52:24;5.43;;;4.30;;
12224;SDS011;6175;50.956;11.064;2023-04-06T00:54:51;5.13;;;4.63;;
12224;SDS011;6175;50.956;11.064;2023-04-06T00:57:19;5.27;;;4.77;;
12224;SDS011;6175;50.956;11.064;2023-04-06T00:59:47;5.23;;;4.40;;
12224;SDS011;6175;50.956;11.064;2023-04-06T01:02:14;5.93;;;5.20;;
12224;SDS011;6175;50.956;11.064;2023-04-06T01:04:41;5.13;;;4.63;;
12224;SDS011;6175;50.956;11.064;2023-04-06T01:07:08;5.27;;;4.33;;
12224;SDS011;6175;50.956;11.064;2023-04-06T01:09:36;4.73;;;4.20;;
12224;SDS011;6175;50.956;11.064;2023-04-06T01:12:06;6.07;;;4.53;;
12224;SDS011;6175;50.956;11.064;2023-04-06T01:14:34;5.07;;;4.50;;
12224;SDS011;6175;50.956;11.064;2023-04-06T01:17:01;5.37;;;4.43;;
12224;SDS011;6175;50.956;11.064;2023-04-06T01:19:29;5.00;;;4.53;;
12224;SDS011;6175;50.956;11.064;2023-04-06T01:21:56;4.97;;;4.57;;
12224;SDS011;6175;50.956;11.064;2023-04-06T01:24:24;4.67;;;4.27;;
12224;SDS011;6175;50.956;11.064;2023-04-06T01:26:51;5.17;;;4.67;;
12224;SDS011;6175;50.956;11.064;2023-04-06T01:29:18;5.33;;;4.70;;
12224;SDS011;6175;50.956;11.064;2023-04-06T01:31:46;5.43;;;4.77;;
12224;SDS011;6175;50.956;11.064;2023-04-06T01:34:13;5.43;;;4.93;;
12224;SDS011;6175;50.956;11.064;2023-04-06T01:36:40;4.97;;;4.47;;
12224;SDS011;6175;50.956;11.064;2023-04-06T01:39:07;5.10;;;4.60;;
12224;SDS011;6175;50.956;11.064;2023-04-06T01:41:35;5.23;;;4.67;;
12224;SDS011;6175;50.956;11.064;2023-04-06T01:44:03;5.67;;;5.03;;
12224;SDS011;6175;50.956;11.064;2023-04-06T01:46:30;5.40;;;4.90;;
12224;SDS011;6175;50.956;11.064;2023-04-06T01:48:57;5.23;;;4.73;;
12224;SDS011;6175;50.956;11.064;2023-04-06T01:51:25;5.10;;;4.60;;
12224;SDS011;6175;50.956;11.064;2023-04-06T01:53:52;5.97;;;4.63;;
12224;SDS011;6175;50.956;11.064;2023-04-06T01:56:20;5.17;;;4.67;;
12224;SDS011;6175;50.956;11.064;2023-04-06T01:58:48;4.53;;;4.13;;
12224;SDS011;6175;50.956;11.064;2023-04-06T02:01:15;5.37;;;4.73;;
12224;SDS011;6175;50.956;11.064;2023-04-06T02:03:42;5.50;;;5.00;;
12224;SDS011;6175;50.956;11.064;2023-04-06T02:06:09;5.73;;;5.13;;
12224;SDS011;6175;50.956;11.064;2023-04-06T02:08:37;5.30;;;4.70;;
12224;SDS011;6175;50.956;11.064;2023-04-06T02:11:04;6.00;;;5.00;;
12224;SDS011;6175;50.956;11.064;2023-04-06T02:13:31;5.67;;;4.67;;
12224;SDS011;6175;50.956;11.064;2023-04-06T02:15:59;5.27;;;4.63;;
12224;SDS011;6175;50.956;11.064;2023-04-06T02:18:27;5.90;;;4.93;;
12224;SDS011;6175;50.956;11.064;2023-04-06T02:20:54;5.13;;;4.67;;
12224;SDS011;6175;50.956;11.064;2023-04-06T02:23:22;5.63;;;4.73;;
12224;SDS011;6175;50.956;11.064;2023-04-06T02:25:49;6.00;;;5.40;;
12224;SDS011;6175;50.956;11.064;2023-04-06T02:28:16;5.23;;;4.60;;
12224;SDS011;6175;50.956;11.064;2023-04-06T02:30:43;5.83;;;5.20;;
12224;SDS011;6175;50.956;11.064;2023-04-06T02:33:13;6.83;;;5.87;;
12224;SDS011;6175;50.956;11.064;2023-04-06T02:35:40;7.20;;;5.37;;
12224;SDS011;6175;50.956;11.064;2023-04-06T02:38:07;5.93;;;5.23;;
12224;SDS011;6175;50.956;11.064;2023-04-06T02:40:34;5.57;;;5.03;;
12224;SDS011;6175;50.956;11.064;2023-04-06T02:43:01;5.70;;;5.20;;
12224;SDS011;6175;50.956;11.064;2023-04-06T02:45:28;5.93;;;5.30;;
12224;SDS011;6175;50.956;11.064;2023-04-06T02:47:55;5.43;;;4.97;;
12224;SDS011;6175;50.956;11.064;2023-04-06T02:50:24;6.50;;;5.13;;
12224;SDS011;6175;50.956;11.064;2023-04-06T02:52:52;5.43;;;4.93;;
12224;SDS011;6175;50.956;11.064;2023-04-06T02:55:19;5.90;;;5.13;;
12224;SDS011;6175;50.956;11.064;2023-04-06T02:57:46;6.30;;;5.67;;
12224;SDS011;6175;50.956;11.064;2023-04-06T03:00:13;6.07;;;5.47;;
12224;SDS011;6175;50.956;11.064;2023-04-06T03:02:41;5.70;;;5.20;;
12224;SDS011;6175;50.956;11.064;2023-04-06T03:05:08;6.53;;;5.53;;
12224;SDS011;6175;50.956;11.064;2023-04-06T03:07:36;5.77;;;5.27;;
12224;SDS011;6175;50.956;11.064;2023-04-06T03:10:04;5.80;;;5.10;;
12224;SDS011;6175;50.956;11.064;2023-04-06T03:12:31;6.43;;;5.53;;
12224;SDS011;6175;50.956;11.064;2023-04-06T03:14:58;7.97;;;6.07;;
12224;SDS011;6175;50.956;11.064;2023-04-06T03:17:25;6.70;;;5.60;;
12224;SDS011;6175;50.956;11.064;2023-04-06T03:19:53;7.27;;;6.00;;
12224;SDS011;6175;50.956;11.064;2023-04-06T03:22:20;6.87;;;6.17;;
12224;SDS011;6175;50.956;11.064;2023-04-06T03:24:49;7.60;;;6.10;;
12224;SDS011;6175;50.956;11.064;2023-04-06T03:27:16;7.80;;;6.13;;
12224;SDS011;6175;50.956;11.064;2023-04-06T03:29:43;7.03;;;6.03;;
12224;SDS011;6175;50.956;11.064;2023-04-06T03:32:10;6.73;;;6.03;;
12224;SDS011;6175;50.956;11.064;2023-04-06T03:34:37;8.37;;;6.83;;
12224;SDS011;6175;50.956;11.064;2023-04-06T03:37:04;6.60;;;5.90;;
12224;SDS011;6175;50.956;11.064;2023-04-06T03:39:31;7.50;;;6.13;;
12224;SDS011;6175;50.956;11.064;2023-04-06T03:42:00;7.00;;;6.30;;
12224;SDS011;6175;50.956;11.064;2023-04-06T03:44:27;6.57;;;5.80;;
12224;SDS011;6175;50.956;11.064;2023-04-06T03:46:54;6.50;;;5.87;;
12224;SDS011;6175;50.956;11.064;2023-04-06T03:49:21;5.80;;;5.27;;
12224;SDS011;6175;50.956;11.064;2023-04-06T03:51:49;6.27;;;5.67;;
12224;SDS011;6175;50.956;11.064;2023-04-06T03:54:16;12.63;;;6.97;;
12224;SDS011;6175;50.956;11.064;2023-04-06T03:56:43;8.70;;;6.90;;
12224;SDS011;6175;50.956;11.064;2023-04-06T03:59:11;7.93;;;6.67;;
12224;SDS011;6175;50.956;11.064;2023-04-06T04:01:38;7.40;;;6.40;;
12224;SDS011;6175;50.956;11.064;2023-04-06T04:04:05;9.87;;;7.03;;
12224;SDS011;6175;50.956;11.064;2023-04-06T04:06:32;8.00;;;7.27;;
12224;SDS011;6175;50.956;11.064;2023-04-06T04:09:01;10.37;;;7.63;;
12224;SDS011;6175;50.956;11.064;2023-04-06T04:11:28;8.40;;;7.50;;
12224;SDS011;6175;50.956;11.064;2023-04-06T04:13:55;6.83;;;6.23;;
12224;SDS011;6175;50.956;11.064;2023-04-06T04:16:24;8.67;;;7.40;;
12224;SDS011;6175;50.956;11.064;2023-04-06T04:18:51;8.00;;;7.20;;
12224;SDS011;6175;50.956;11.064;2023-04-06T04:21:18;8.33;;;6.30;;
12224;SDS011;6175;50.956;11.064;2023-04-06T04:23:45;7.60;;;6.90;;
12224;SDS011;6175;50.956;11.064;2023-04-06T04:26:12;8.50;;;7.13;;
12224;SDS011;6175;50.956;11.064;2023-04-06T04:28:40;7.77;;;6.97;;
12224;SDS011;6175;50.956;11.064;2023-04-06T04:31:07;8.27;;;7.33;;
12224;SDS011;6175;50.956;11.064;2023-04-06T04:33:36;8.27;;;6.73;;
12224;SDS011;6175;50.956;11.064;2023-04-06T04:36:03;8.13;;;7.27;;
12224;SDS011;6175;50.956;11.064;2023-04-06T04:38:30;7.57;;;6.70;;
12224;SDS011;6175;50.956;11.064;2023-04-06T04:40:57;7.77;;;6.47;;
12224;SDS011;6175;50.956;11.064;2023-04-06T04:43:24;7.40;;;6.67;;
12224;SDS011;6175;50.956;11.064;2023-04-06T04:45:51;7.40;;;6.40;;
12224;SDS011;6175;50.956;11.064;2023-04-06T04:48:19;8.23;;;6.73;;
12224;SDS011;6175;50.956;11.064;2023-04-06T04:50:47;7.77;;;6.77;;
12224;SDS011;6175;50.956;11.064;2023-04-06T04:53:14;7.27;;;6.57;;
12224;SDS011;6175;50.956;11.064;2023-04-06T04:55:42;8.30;;;6.83;;
12224;SDS011;6175;50.956;11.064;2023-04-06T04:58:09;8.87;;;7.00;;
12224;SDS011;6175;50.956;11.064;2023-04-06T05:00:40;8.70;;;7.30;;
12224;SDS011;6175;50.956;11.064;2023-04-06T05:03:07;9.53;;;6.83;;
12224;SDS011;6175;50.956;11.064;2023-04-06T05:05:35;8.33;;;6.87;;
12224;SDS011;6175;50.956;11.064;2023-04-06T05:08:03;8.77;;;6.93;;
12224;SDS011;6175;50.956;11.064;2023-04-06T05:10:30;7.60;;;6.90;;
12224;SDS011;6175;50.956;11.064;2023-04-06T05:12:59;7.47;;;6.60;;
12224;SDS011;6175;50.956;11.064;2023-04-06T05:15:26;7.67;;;6.87;;
12224;SDS011;6175;50.956;11.064;2023-04-06T05:17:53;8.20;;;6.63;;
12224;SDS011;6175;50.956;11.064;2023-04-06T05:20:20;8.33;;;7.47;;
12224;SDS011;6175;50.956;11.064;2023-04-06T05:22:47;9.77;;;8.00;;
12224;SDS011;6175;50.956;11.064;2023-04-06T05:25:16;9.03;;;8.00;;
12224;SDS011;6175;50.956;11.064;2023-04-06T05:27:43;9.17;;;8.03;;
12224;SDS011;6175;50.956;11.064;2023-04-06T05:30:11;10.17;;;8.77;;
12224;SDS011;6175;50.956;11.064;2023-04-06T05:32:38;10.97;;;8.80;;
12224;SDS011;6175;50.956;11.064;2023-04-06T05:35:06;11.43;;;9.03;;
12224;SDS011;6175;50.956;11.064;2023-04-06T05:37:33;10.87;;;9.20;;
12224;SDS011;6175;50.956;11.064;2023-04-06T05:40:00;10.90;;;8.37;;
12224;SDS011;6175;50.956;11.064;2023-04-06T05:42:29;12.53;;;9.47;;
12224;SDS011;6175;50.956;11.064;2023-04-06T05:45:03;9.23;;;8.07;;
12224;SDS011;6175;50.956;11.064;2023-04-06T05:47:30;11.73;;;8.43;;
12224;SDS011;6175;50.956;11.064;2023-04-06T05:49:57;10.47;;;8.07;;
12224;SDS011;6175;50.956;11.064;2023-04-06T05:52:25;12.20;;;8.13;;
12224;SDS011;6175;50.956;11.064;2023-04-06T05:54:52;10.37;;;8.33;;
12224;SDS011;6175;50.956;11.064;2023-04-06T05:57:19;10.17;;;7.50;;
12224;SDS011;6175;50.956;11.064;2023-04-06T05:59:48;14.40;;;9.00;;
12224;SDS011;6175;50.956;11.064;2023-04-06T06:02:15;8.70;;;7.67;;
12224;SDS011;6175;50.956;11.064;2023-04-06T06:04:42;11.23;;;8.60;;
12224;SDS011;6175;50.956;11.064;2023-04-06T06:07:09;9.90;;;8.67;;
12224;SDS011;6175;50.956;11.064;2023-04-06T06:09:36;11.70;;;8.17;;
12224;SDS011;6175;50.956;11.064;2023-04-06T06:12:04;11.93;;;8.27;;
12224;SDS011;6175;50.956;11.064;2023-04-06T06:14:31;11.00;;;9.70;;
12224;SDS011;6175;50.956;11.064;2023-04-06T06:16:59;11.10;;;8.30;;
12224;SDS011;6175;50.956;11.064;2023-04-06T06:19:26;9.87;;;8.47;;
12224;SDS011;6175;50.956;11.064;2023-04-06T06:21:54;10.93;;;8.33;;
12224;SDS011;6175;50.956;11.064;2023-04-06T06:24:21;10.87;;;9.27;;
12224;SDS011;6175;50.956;11.064;2023-04-06T06:26:48;12.77;;;9.27;;
12224;SDS011;6175;50.956;11.064;2023-04-06T06:29:15;12.00;;;9.50;;
12224;SDS011;6175;50.956;11.064;2023-04-06T06:31:42;12.33;;;8.27;;
12224;SDS011;6175;50.956;11.064;2023-04-06T06:34:10;10.90;;;9.05;;
12224;SDS011;6175;50.956;11.064;2023-04-06T06:36:38;12.63;;;8.50;;
12224;SDS011;6175;50.956;11.064;2023-04-06T06:39:06;11.20;;;8.20;;
12224;SDS011;6175;50.956;11.064;2023-04-06T06:41:33;9.10;;;7.65;;
12224;SDS011;6175;50.956;11.064;2023-04-06T06:44:00;8.32;;;6.85;;
12224;SDS011;6175;50.956;11.064;2023-04-06T06:46:27;9.80;;;7.88;;
12224;SDS011;6175;50.956;11.064;2023-04-06T06:48:54;7.60;;;6.70;;
12224;SDS011;6175;50.956;11.064;2023-04-06T06:51:23;8.45;;;6.53;;
12224;SDS011;6175;50.956;11.064;2023-04-06T06:53:50;6.88;;;6.18;;
12224;SDS011;6175;50.956;11.064;2023-04-06T06:56:17;6.83;;;6.17;;
12224;SDS011;6175;50.956;11.064;2023-04-06T06:58:45;7.25;;;6.38;;
12224;SDS011;6175;50.956;11.064;2023-04-06T07:01:12;7.82;;;7.03;;
12224;SDS011;6175;50.956;11.064;2023-04-06T07:03:40;9.13;;;7.82;;
12224;SDS011;6175;50.956;11.064;2023-04-06T07:06:06;8.98;;;7.60;;
12224;SDS011;6175;50.956;11.064;2023-04-06T07:08:35;10.45;;;7.70;;
12224;SDS011;6175;50.956;11.064;2023-04-06T07:11:02;7.85;;;6.95;;
12224;SDS011;6175;50.956;11.064;2023-04-06T07:13:29;8.30;;;7.50;;
12224;SDS011;6175;50.956;11.064;2023-04-06T07:15:57;9.45;;;7.90;;
12224;SDS011;6175;50.956;11.064;2023-04-06T07:18:24;9.90;;;7.18;;
12224;SDS011;6175;50.956;11.064;2023-04-06T07:20:51;8.43;;;7.55;;
12224;SDS011;6175;50.956;11.064;2023-04-06T07:23:18;7.85;;;7.00;;
12224;SDS011;6175;50.956;11.064;2023-04-06T07:25:47;9.35;;;8.10;;
12224;SDS011;6175;50.956;11.064;2023-04-06T07:28:15;8.02;;;6.57;;
12224;SDS011;6175;50.956;11.064;2023-04-06T07:30:42;8.80;;;6.35;;
12224;SDS011;6175;50.956;11.064;2023-04-06T07:33:10;8.07;;;7.22;;
12224;SDS011;6175;50.956;11.064;2023-04-06T07:35:37;8.23;;;7.03;;
12224;SDS011;6175;50.956;11.064;2023-04-06T07:38:04;7.72;;;6.82;;
12224;SDS011;6175;50.956;11.064;2023-04-06T07:40:31;6.82;;;6.13;;
12224;SDS011;6175;50.956;11.064;2023-04-06T07:43:00;9.02;;;7.20;;
12224;SDS011;6175;50.956;11.064;2023-04-06T07:45:28;8.07;;;6.63;;
12224;SDS011;6175;50.956;11.064;2023-04-06T07:47:54;7.60;;;6.25;;
12224;SDS011;6175;50.956;11.064;2023-04-06T07:50:22;7.80;;;6.15;;
12224;SDS011;6175;50.956;11.064;2023-04-06T07:52:49;7.32;;;6.60;;
12224;SDS011;6175;50.956;11.064;2023-04-06T07:55:16;8.07;;;6.13;;
12224;SDS011;6175;50.956;11.064;2023-04-06T07:57:43;7.43;;;6.10;;
12224;SDS011;6175;50.956;11.064;2023-04-06T08:00:13;7.53;;;6.38;;
12224;SDS011;6175;50.956;11.064;2023-04-06T08:02:40;6.43;;;4.72;;
12224;SDS011;6175;50.956;11.064;2023-04-06T08:05:08;6.93;;;5.00;;
12224;SDS011;6175;50.956;11.064;2023-04-06T08:07:35;7.10;;;5.22;;
12224;SDS011;6175;50.956;11.064;2023-04-06T08:10:02;5.18;;;4.43;;
12224;SDS011;6175;50.956;11.064;2023-04-06T08:12:30;6.85;;;5.20;;
12224;SDS011;6175;50.956;11.064;2023-04-06T08:14:57;8.10;;;4.85;;
12224;SDS011;6175;50.956;11.064;2023-04-06T08:17:26;7.82;;;4.75;;
12224;SDS011;6175;50.956;11.064;2023-04-06T08:19:55;5.60;;;4.25;;
12224;SDS011;6175;50.956;11.064;2023-04-06T08:22:22;7.03;;;5.00;;
12224;SDS011;6175;50.956;11.064;2023-04-06T08:24:50;7.30;;;4.85;;
12224;SDS011;6175;50.956;11.064;2023-04-06T08:27:17;5.60;;;5.00;;
12224;SDS011;6175;50.956;11.064;2023-04-06T08:29:44;6.30;;;5.03;;
12224;SDS011;6175;50.956;11.064;2023-04-06T08:32:11;6.60;;;4.80;;
12224;SDS011;6175;50.956;11.064;2023-04-06T08:34:40;5.57;;;4.85;;
12224;SDS011;6175;50.956;11.064;2023-04-06T08:37:07;5.07;;;4.55;;
12224;SDS011;6175;50.956;11.064;2023-04-06T08:39:33;5.65;;;4.88;;
12224;SDS011;6175;50.956;11.064;2023-04-06T08:42:00;5.95;;;4.45;;
12224;SDS011;6175;50.956;11.064;2023-04-06T08:44:28;5.00;;;4.50;;
12224;SDS011;6175;50.956;11.064;2023-04-06T08:46:56;7.28;;;4.78;;
12224;SDS011;6175;50.956;11.064;2023-04-06T08:49:24;6.93;;;5.15;;
12224;SDS011;6175;50.956;11.064;2023-04-06T08:51:53;4.82;;;4.43;;
12224;SDS011;6175;50.956;11.064;2023-04-06T08:54:22;5.85;;;4.43;;
12224;SDS011;6175;50.956;11.064;2023-04-06T08:56:49;5.28;;;4.70;;
12224;SDS011;6175;50.956;11.064;2023-04-06T08:59:16;7.03;;;5.00;;
12224;SDS011;6175;50.956;11.064;2023-04-06T09:01:44;6.80;;;4.53;;
12224;SDS011;6175;50.956;11.064;2023-04-06T09:04:11;7.53;;;4.50;;
12224;SDS011;6175;50.956;11.064;2023-04-06T09:06:39;5.35;;;4.85;;
12224;SDS011;6175;50.956;11.064;2023-04-06T09:09:08;5.18;;;4.68;;
12224;SDS011;6175;50.956;11.064;2023-04-06T09:11:42;5.57;;;4.40;;
12224;SDS011;6175;50.956;11.064;2023-04-06T09:14:13;5.97;;;4.38;;
12224;SDS011;6175;50.956;11.064;2023-04-06T09:16:40;5.10;;;4.60;;
12224;SDS011;6175;50.956;11.064;2023-04-06T09:19:07;5.32;;;4.60;;
12224;SDS011;6175;50.956;11.064;2023-04-06T09:21:35;6.35;;;5.05;;
12224;SDS011;6175;50.956;11.064;2023-04-06T09:24:02;4.97;;;4.38;;
12224;SDS011;6175;50.956;11.064;2023-04-06T09:26:31;5.32;;;4.53;;
12224;SDS011;6175;50.956;11.064;2023-04-06T09:28:59;6.68;;;4.60;;
12224;SDS011;6175;50.956;11.064;2023-04-06T09:31:29;6.22;;;4.85;;
12224;SDS011;6175;50.956;11.064;2023-04-06T09:33:58;5.95;;;4.70;;
12224;SDS011;6175;50.956;11.064;2023-04-06T09:36:29;5.45;;;4.40;;
12224;SDS011;6175;50.956;11.064;2023-04-06T09:38:57;5.53;;;4.82;;
12224;SDS011;6175;50.956;11.064;2023-04-06T09:41:25;5.63;;;4.85;;
12224;SDS011;6175;50.956;11.064;2023-04-06T09:44:02;5.30;;;4.45;;
12224;SDS011;6175;50.956;11.064;2023-04-06T09:46:30;6.20;;;4.50;;
12224;SDS011;6175;50.956;11.064;2023-04-06T09:48:59;5.30;;;4.80;;
12224;SDS011;6175;50.956;11.064;2023-04-06T09:51:26;6.13;;;4.28;;
12224;SDS011;6175;50.956;11.064;2023-04-06T09:53:57;7.35;;;5.10;;
12224;SDS011;6175;50.956;11.064;2023-04-06T09:56:27;6.22;;;4.60;;
12224;SDS011;6175;50.956;11.064;2023-04-06T09:58:56;4.72;;;4.00;;
12224;SDS011;6175;50.956;11.064;2023-04-06T10:01:29;4.93;;;4.28;;
12224;SDS011;6175;50.956;11.064;2023-04-06T10:04:00;8.77;;;4.72;;
12224;SDS011;6175;50.956;11.064;2023-04-06T10:06:37;6.90;;;5.03;;
12224;SDS011;6175;50.956;11.064;2023-04-06T10:09:04;5.88;;;5.00;;
12224;SDS011;6175;50.956;11.064;2023-04-06T10:11:33;6.28;;;4.88;;
12224;SDS011;6175;50.956;11.064;2023-04-06T10:14:01;5.63;;;5.07;;
12224;SDS011;6175;50.956;11.064;2023-04-06T10:16:29;7.95;;;4.93;;
12224;SDS011;6175;50.956;11.064;2023-04-06T10:18:58;5.60;;;4.65;;
12224;SDS011;6175;50.956;11.064;2023-04-06T10:21:30;6.18;;;4.40;;
12224;SDS011;6175;50.956;11.064;2023-04-06T10:23:59;5.28;;;4.30;;
12224;SDS011;6175;50.956;11.064;2023-04-06T10:26:27;5.50;;;4.95;;
12224;SDS011;6175;50.956;11.064;2023-04-06T10:28:55;5.43;;;4.80;;
12224;SDS011;6175;50.956;11.064;2023-04-06T10:31:30;6.45;;;4.53;;
12224;SDS011;6175;50.956;11.064;2023-04-06T10:33:57;5.38;;;4.60;;
12224;SDS011;6175;50.956;11.064;2023-04-06T10:36:27;5.18;;;4.53;;
12224;SDS011;6175;50.956;11.064;2023-04-06T10:38:58;5.07;;;4.57;;
12224;SDS011;6175;50.956;11.064;2023-04-06T10:41:31;4.93;;;4.00;;
12224;SDS011;6175;50.956;11.064;2023-04-06T10:43:59;5.13;;;4.28;;
12224;SDS011;6175;50.956;11.064;2023-04-06T10:46:29;4.82;;;4.32;;
12224;SDS011;6175;50.956;11.064;2023-04-06T10:49:09;5.57;;;4.30;;
12224;SDS011;6175;50.956;11.064;2023-04-06T10:51:37;4.65;;;4.20;;
12224;SDS011;6175;50.956;11.064;2023-04-06T10:54:05;6.85;;;4.88;;
12224;SDS011;6175;50.956;11.064;2023-04-06T10:56:32;4.88;;;4.38;;
12224;SDS011;6175;50.956;11.064;2023-04-06T10:59:00;5.22;;;4.72;;
12224;SDS011;6175;50.956;11.064;2023-04-06T11:01:27;6.50;;;4.60;;
12224;SDS011;6175;50.956;11.064;2023-04-06T11:03:56;4.68;;;4.20;;
12224;SDS011;6175;50.956;11.064;2023-04-06T11:06:24;5.13;;;4.63;;
12224;SDS011;6175;50.956;11.064;2023-04-06T11:08:52;5.03;;;4.53;;
12224;SDS011;6175;50.956;11.064;2023-04-06T11:11:21;5.20;;;4.47;;
12224;SDS011;6175;50.956;11.064;2023-04-06T11:13:51;5.03;;;3.75;;
12224;SDS011;6175;50.956;11.064;2023-04-06T11:16:20;5.28;;;4.78;;
12224;SDS011;6175;50.956;11.064;2023-04-06T11:18:51;5.53;;;4.97;;
12224;SDS011;6175;50.956;11.064;2023-04-06T11:21:32;5.00;;;4.57;;
12224;SDS011;6175;50.956;11.064;2023-04-06T11:24:04;5.03;;;4.40;;
12224;SDS011;6175;50.956;11.064;2023-04-06T11:26:36;5.70;;;4.45;;
12224;SDS011;6175;50.956;11.064;2023-04-06T11:29:04;6.25;;;4.72;;
12224;SDS011;6175;50.956;11.064;2023-04-06T11:31:31;5.53;;;4.50;;
12224;SDS011;6175;50.956;11.064;2023-04-06T11:33:58;4.90;;;4.35;;
12224;SDS011;6175;50.956;11.064;2023-04-06T11:36:26;4.30;;;3.90;;
12224;SDS011;6175;50.956;11.064;2023-04-06T11:38:57;6.10;;;4.30;;
12224;SDS011;6175;50.956;11.064;2023-04-06T11:41:24;4.60;;;4.05;;
12224;SDS011;6175;50.956;11.064;2023-04-06T11:43:54;4.35;;;3.95;;
12224;SDS011;6175;50.956;11.064;2023-04-06T11:46:22;4.18;;;3.78;;
12224;SDS011;6175;50.956;11.064;2023-04-06T11:48:49;5.80;;;4.30;;
12224;SDS011;6175;50.956;11.064;2023-04-06T11:51:21;6.30;;;3.78;;
12224;SDS011;6175;50.956;11.064;2023-04-06T11:53:49;3.88;;;3.50;;
12224;SDS011;6175;50.956;11.064;2023-04-06T11:56:23;4.72;;;3.97;;
12224;SDS011;6175;50.956;11.064;2023-04-06T11:58:51;4.45;;;3.60;;
12224;SDS011;6175;50.956;11.064;2023-04-06T12:01:18;4.47;;;3.88;;
12224;SDS011;6175;50.956;11.064;2023-04-06T12:03:45;5.53;;;3.85;;
12224;SDS011;6175;50.956;11.064;2023-04-06T12:06:13;4.88;;;3.63;;
12224;SDS011;6175;50.956;11.064;2023-04-06T12:08:40;3.70;;;3.40;;
12224;SDS011;6175;50.956;11.064;2023-04-06T12:11:07;5.13;;;4.30;;
12224;SDS011;6175;50.956;11.064;2023-04-06T12:13:35;4.13;;;3.72;;
12224;SDS011;6175;50.956;11.064;2023-04-06T12:16:03;4.22;;;3.83;;
12224;SDS011;6175;50.956;11.064;2023-04-06T12:18:30;5.00;;;4.28;;
12224;SDS011;6175;50.956;11.064;2023-04-06T12:20:58;4.47;;;4.07;;
12224;SDS011;6175;50.956;11.064;2023-04-06T12:23:25;5.25;;;3.70;;
12224;SDS011;6175;50.956;11.064;2023-04-06T12:25:52;5.57;;;4.28;;
12224;SDS011;6175;50.956;11.064;2023-04-06T12:28:19;4.93;;;3.92;;
12224;SDS011;6175;50.956;11.064;2023-04-06T12:30:50;4.88;;;4.10;;
12224;SDS011;6175;50.956;11.064;2023-04-06T12:33:17;6.10;;;4.45;;
12224;SDS011;6175;50.956;11.064;2023-04-06T12:35:44;4.93;;;3.90;;
12224;SDS011;6175;50.956;11.064;2023-04-06T12:38:11;4.30;;;3.75;;
12224;SDS011;6175;50.956;11.064;2023-04-06T12:40:38;4.57;;;4.18;;
12224;SDS011;6175;50.956;11.064;2023-04-06T12:43:06;4.18;;;3.70;;
12224;SDS011;6175;50.956;11.064;2023-04-06T12:45:33;5.50;;;4.25;;
12224;SDS011;6175;50.956;11.064;2023-04-06T12:48:02;5.30;;;4.57;;
12224;SDS011;6175;50.956;11.064;2023-04-06T12:50:29;4.40;;;4.00;;
12224;SDS011;6175;50.956;11.064;2023-04-06T12:52:56;4.07;;;3.67;;
12224;SDS011;6175;50.956;11.064;2023-04-06T12:55:23;4.78;;;4.30;;
12224;SDS011;6175;50.956;11.064;2023-04-06T12:57:51;5.45;;;4.10;;
12224;SDS011;6175;50.956;11.064;2023-04-06T13:00:19;5.53;;;3.80;;
12224;SDS011;6175;50.956;11.064;2023-04-06T13:02:47;4.22;;;3.80;;
12224;SDS011;6175;50.956;11.064;2023-04-06T13:05:15;3.70;;;3.40;;
12224;SDS011;6175;50.956;11.064;2023-04-06T13:07:44;5.10;;;3.45;;
12224;SDS011;6175;50.956;11.064;2023-04-06T13:10:12;5.18;;;3.92;;
12224;SDS011;6175;50.956;11.064;2023-04-06T13:12:39;4.38;;;3.97;;
12224;SDS011;6175;50.956;11.064;2023-04-06T13:15:06;4.75;;;4.18;;
12224;SDS011;6175;50.956;11.064;2023-04-06T13:17:34;4.70;;;3.85;;
12224;SDS011;6175;50.956;11.064;2023-04-06T13:20:01;5.32;;;4.10;;
12224;SDS011;6175;50.956;11.064;2023-04-06T13:22:29;4.28;;;3.75;;
12224;SDS011;6175;50.956;11.064;2023-04-06T13:24:57;3.97;;;3.55;;
12224;SDS011;6175;50.956;11.064;2023-04-06T13:27:23;4.22;;;3.78;;
12224;SDS011;6175;50.956;11.064;2023-04-06T13:29:52;6.22;;;4.07;;
12224;SDS011;6175;50.956;11.064;2023-04-06T13:32:19;4.72;;;4.25;;
12224;SDS011;6175;50.956;11.064;2023-04-06T13:34:46;5.30;;;4.80;;
12224;SDS011;6175;50.956;11.064;2023-04-06T13:37:14;5.38;;;4.63;;
12224;SDS011;6175;50.956;11.064;2023-04-06T13:39:43;5.90;;;4.68;;
12224;SDS011;6175;50.956;11.064;2023-04-06T13:42:10;5.05;;;4.28;;
12224;SDS011;6175;50.956;11.064;2023-04-06T13:44:37;5.00;;;4.30;;
12224;SDS011;6175;50.956;11.064;2023-04-06T13:47:04;5.10;;;4.57;;
12224;SDS011;6175;50.956;11.064;2023-04-06T13:49:32;4.60;;;4.00;;
12224;SDS011;6175;50.956;11.064;2023-04-06T13:51:59;5.78;;;4.60;;
12224;SDS011;6175;50.956;11.064;2023-04-06T13:54:26;5.40;;;4.90;;
12224;SDS011;6175;50.956;11.064;2023-04-06T13:56:55;5.53;;;4.82;;
12224;SDS011;6175;50.956;11.064;2023-04-06T13:59:22;4.40;;;4.00;;
12224;SDS011;6175;50.956;11.064;2023-04-06T14:01:50;10.93;;;7.70;;
12224;SDS011;6175;50.956;11.064;2023-04-06T14:04:17;5.63;;;4.80;;
12224;SDS011;6175;50.956;11.064;2023-04-06T14:06:44;5.22;;;4.70;;
12224;SDS011;6175;50.956;11.064;2023-04-06T14:09:12;9.32;;;4.97;;
12224;SDS011;6175;50.956;11.064;2023-04-06T14:11:39;5.63;;;4.72;;
12224;SDS011;6175;50.956;11.064;2023-04-06T14:14:08;5.30;;;4.80;;
12224;SDS011;6175;50.956;11.064;2023-04-06T14:16:35;5.00;;;4.20;;
12224;SDS011;6175;50.956;11.064;2023-04-06T14:19:02;5.85;;;5.00;;
12224;SDS011;6175;50.956;11.064;2023-04-06T14:21:30;4.47;;;4.07;;
12224;SDS011;6175;50.956;11.064;2023-04-06T14:23:57;3.75;;;3.45;;
12224;SDS011;6175;50.956;11.064;2023-04-06T14:26:27;5.53;;;4.30;;
12224;SDS011;6175;50.956;11.064;2023-04-06T14:28:54;6.20;;;4.75;;
12224;SDS011;6175;50.956;11.064;2023-04-06T14:31:22;4.55;;;4.15;;
12224;SDS011;6175;50.956;11.064;2023-04-06T14:33:50;4.45;;;4.05;;
12224;SDS011;6175;50.956;11.064;2023-04-06T14:36:17;4.30;;;3.90;;
12224;SDS011;6175;50.956;11.064;2023-04-06T14:38:45;4.32;;;3.92;;
12224;SDS011;6175;50.956;11.064;2023-04-06T14:41:15;4.75;;;4.30;;
12224;SDS011;6175;50.956;11.064;2023-04-06T14:43:42;5.00;;;4.30;;
12224;SDS011;6175;50.956;11.064;2023-04-06T14:46:09;4.53;;;3.92;;
12224;SDS011;6175;50.956;11.064;2023-04-06T14:48:38;4.50;;;4.10;;